Weather History for KCQM - January, 2013

Change the Weather History Date:

Wednesday, January 16, 2013

  Actual Average Record
Temperature  
Mean Temperature 8 °F -  
Max Temperature 23 °F 14 °F 37 °F (1999)
Min Temperature -7 °F 0 °F -38 °F (2005)
Degree Days  
Heating Degree Days 57    
Moisture  
Dew Point 4 °F    
Average Humidity 75    
Maximum Humidity 100    
Minimum Humidity 47    
Precipitation  
Precipitation 0.00 in - - ()
Sea Level Pressure  
Sea Level Pressure 29.76 in    
Wind  
Wind Speed 10 mph (WNW)    
Max Wind Speed 17 mph    
Max Gust Speed 25 mph    
Visibility 8 miles    
Events Snow    
Averages and records for this station are not official NWS values.
T = Trace of Precipitation, MM = Missing Value Source: NWS Daily Summary

Daily Weather History Graph

Daily Weather History Graph

Search for Another Location

Airport or City:

Trip Planner

Search our weather history database for the weather conditions in past years. The results will help you decide how hot, cold, wet, or windy it might be!

Date:

Astronomy

Jan. 16, 2013 Rise Set
Actual Time 7:54 AM CST 4:47 PM CST
Civil Twilight 7:19 AM CST 5:22 PM CST
Nautical Twilight 6:40 AM CST 6:00 PM CST
Astronomical Twilight 6:04 AM CST 6:37 PM CST
Moon 10:02 AM CST (1/16) 11:10 PM CST (1/16)
Length of Visible Light 10h 03m
Length of Day
8h 53m
Waxing Crescent, 28% of the Moon is Illuminated
Jan 16
Waxing Crescent
Jan 18
First Quarter
Jan 26
Full
Feb 3
Last Quarter
Feb 10
New

Hourly Weather History & Observations

Time (CST) Temp. Windchill Dew Point Humidity Pressure Visibility Wind Dir Wind Speed Gust Speed Precip Events Conditions
12:16 AM 19.4 °F 7.2 °F 14.0 °F 80% 29.50 in 2.5 mi SSW 11.5 mph - N/A Snow Light Snow
12:37 AM 19.4 °F 6.6 °F 15.8 °F 86% 29.48 in 1.5 mi South 12.7 mph 18.4 mph N/A Snow Light Snow
12:57 AM 19.4 °F 7.2 °F 17.6 °F 93% 29.45 in 1.2 mi South 11.5 mph 18.4 mph N/A Snow Light Snow
1:16 AM 19.4 °F 6.6 °F 17.6 °F 93% 29.44 in 2.0 mi SSW 12.7 mph 24.2 mph N/A Snow Light Snow
1:37 AM 21.2 °F 8.9 °F 17.6 °F 86% 29.46 in 3.0 mi SSW 12.7 mph 21.9 mph N/A Snow Light Snow
1:56 AM 21.2 °F 9.5 °F 17.6 °F 86% 29.45 in 2.0 mi SW 11.5 mph 18.4 mph N/A Snow Light Snow
2:17 AM 21.2 °F 8.9 °F 19.4 °F 93% 29.46 in 2.5 mi SW 12.7 mph 18.4 mph N/A Snow Light Snow
2:37 AM 21.2 °F 10.9 °F 19.4 °F 93% 29.44 in 2.5 mi SW 9.2 mph 18.4 mph N/A Snow Light Snow
2:56 AM 21.2 °F 9.5 °F 19.4 °F 93% 29.45 in 3.0 mi SW 11.5 mph 16.1 mph N/A Snow Light Snow
3:17 AM 21.2 °F 10.9 °F 19.4 °F 93% 29.44 in 3.0 mi SW 9.2 mph - N/A Snow Light Snow
3:36 AM 21.2 °F 10.9 °F 19.4 °F 93% 29.44 in 4.0 mi SW 9.2 mph - N/A   Overcast
3:56 AM 21.2 °F 11.7 °F 21.2 °F 100% 29.44 in 3.0 mi WSW 8.1 mph - N/A   Overcast
4:17 AM 21.2 °F 10.9 °F 21.2 °F 100% 29.45 in 4.0 mi WSW 9.2 mph - N/A Snow Light Snow
4:36 AM 23.0 °F 12.4 °F 21.2 °F 93% 29.45 in 10.0 mi West 10.4 mph - N/A   Overcast
4:57 AM 23.0 °F 11.1 °F 21.2 °F 93% 29.44 in 10.0 mi West 12.7 mph 16.1 mph N/A   Overcast
5:17 AM 23.0 °F 10.6 °F 21.2 °F 93% 29.45 in 7.0 mi West 13.8 mph 17.3 mph N/A   Overcast
5:36 AM 23.0 °F 12.4 °F 21.2 °F 93% 29.46 in 7.0 mi West 10.4 mph - N/A   Overcast
5:57 AM 23.0 °F 9.6 °F 21.2 °F 93% 29.48 in 10.0 mi WNW 16.1 mph 23.0 mph N/A   Overcast
6:36 AM 23.0 °F 12.4 °F 19.4 °F 86% 29.50 in 10.0 mi WNW 10.4 mph 19.6 mph N/A   Overcast
6:57 AM 21.2 °F 11.7 °F 19.4 °F 93% 29.52 in 10.0 mi NW 8.1 mph - N/A   Overcast
7:16 AM 21.2 °F 8.9 °F 19.4 °F 93% 29.54 in 10.0 mi WNW 12.7 mph 19.6 mph N/A   Overcast
7:36 AM 21.2 °F 8.3 °F 17.6 °F 86% 29.55 in 10.0 mi WNW 13.8 mph 18.4 mph N/A   Overcast
7:57 AM 19.4 °F 6.0 °F 15.8 °F 86% 29.57 in 10.0 mi WNW 13.8 mph 21.9 mph N/A   Overcast
8:16 AM 19.4 °F 6.6 °F 15.8 °F 86% 29.58 in 10.0 mi West 12.7 mph - N/A Snow Light Snow
8:36 AM 19.4 °F 7.9 °F 15.8 °F 86% 29.60 in 7.0 mi WNW 10.4 mph 18.4 mph N/A Snow Light Snow
8:57 AM 17.6 °F 5.0 °F 12.2 °F 79% 29.62 in 7.0 mi WNW 11.5 mph 17.3 mph N/A Snow Light Snow
9:16 AM 17.6 °F 6.4 °F 12.2 °F 79% 29.62 in 5.0 mi WNW 9.2 mph 17.3 mph N/A Snow Light Snow
9:37 AM 15.8 °F 5.1 °F 10.4 °F 79% 29.64 in 10.0 mi WNW 8.1 mph 17.3 mph N/A Snow Light Snow
9:57 AM 15.8 °F 5.1 °F 12.2 °F 86% 29.65 in 3.0 mi WNW 8.1 mph - N/A Snow Light Snow
10:16 AM 15.8 °F 4.2 °F 12.2 °F 86% 29.66 in 2.0 mi WNW 9.2 mph - N/A Snow Light Snow
10:37 AM 15.8 °F 2.7 °F 8.6 °F 73% 29.68 in 7.0 mi WNW 11.5 mph 20.7 mph N/A Snow Light Snow
10:57 AM 15.8 °F 4.2 °F 8.6 °F 73% 29.69 in 10.0 mi WNW 9.2 mph - N/A   Mostly Cloudy
11:16 AM 14.0 °F 0.5 °F 8.6 °F 79% 29.70 in 10.0 mi WNW 11.5 mph 18.4 mph N/A Snow Light Snow
11:37 AM 15.8 °F 3.4 °F 8.6 °F 73% 29.71 in 10.0 mi NW 10.4 mph 18.4 mph N/A   Mostly Cloudy
11:57 AM 14.0 °F -0.2 °F 6.8 °F 73% 29.73 in 10.0 mi WNW 12.7 mph 19.6 mph N/A   Overcast
12:16 PM 14.0 °F 2.0 °F 8.6 °F 79% 29.74 in 10.0 mi WNW 9.2 mph 16.1 mph N/A Snow Light Snow
12:37 PM 14.0 °F 0.5 °F 8.6 °F 79% 29.74 in 7.0 mi WNW 11.5 mph 17.3 mph N/A Snow Light Snow
12:56 PM 14.0 °F 3.9 °F 6.8 °F 73% 29.76 in 10.0 mi NW 6.9 mph - N/A   Overcast
1:16 PM 12.2 °F -1.0 °F 1.4 °F 62% 29.77 in 10.0 mi NW 10.4 mph 19.6 mph N/A   Scattered Clouds
1:37 PM 12.2 °F -3.1 °F 3.2 °F 67% 29.78 in 10.0 mi WNW 13.8 mph 23.0 mph N/A   Scattered Clouds
1:56 PM 14.0 °F 1.2 °F 5.0 °F 67% 29.79 in 10.0 mi WNW 10.4 mph 18.4 mph N/A   Mostly Cloudy
2:17 PM 12.2 °F -3.1 °F 1.4 °F 62% 29.82 in 10.0 mi WNW 13.8 mph 19.6 mph N/A   Scattered Clouds
2:36 PM 10.4 °F -6.0 °F -2.2 °F 57% 29.84 in 10.0 mi WNW 15.0 mph 24.2 mph N/A   Clear
2:56 PM 10.4 °F -4.1 °F -0.4 °F 62% 29.86 in 10.0 mi NW 11.5 mph 18.4 mph N/A   Clear
3:17 PM 10.4 °F -7.2 °F -2.2 °F 57% 29.87 in 10.0 mi WNW 17.3 mph 25.3 mph N/A   Scattered Clouds
3:36 PM 10.4 °F -4.8 °F -5.8 °F 48% 29.89 in 10.0 mi WNW 12.7 mph 21.9 mph N/A   Clear
3:56 PM 8.6 °F -7.0 °F -5.8 °F 52% 29.90 in 10.0 mi WNW 12.7 mph 18.4 mph N/A   Clear
4:17 PM 8.6 °F -4.7 °F -5.8 °F 52% 29.92 in 10.0 mi WNW 9.2 mph 20.7 mph N/A   Clear
4:36 PM 6.8 °F -8.6 °F -5.8 °F 56% 29.94 in 10.0 mi WNW 11.5 mph 18.4 mph N/A   Clear
4:57 PM 5.0 °F -9.1 °F -9.4 °F 52% 29.95 in 10.0 mi NW 9.2 mph - N/A   Clear
5:17 PM 3.2 °F -10.3 °F -9.4 °F 56% 29.97 in 10.0 mi NW 8.1 mph - N/A   Clear
5:57 PM 1.4 °F -15.3 °F -13.0 °F 51% 30.02 in 10.0 mi WNW 11.5 mph 18.4 mph N/A   Clear
6:17 PM 1.4 °F -12.5 °F -14.8 °F 47% 30.03 in 10.0 mi NW 8.1 mph - N/A   Clear
6:36 PM -0.4 °F -12.0 °F -13.0 °F 55% 30.05 in 10.0 mi NW 5.8 mph - N/A   Clear
6:57 PM -0.4 °F -12.0 °F -11.2 °F 60% 30.06 in 10.0 mi NW 5.8 mph - N/A   Clear
7:17 PM -0.4 °F - -11.2 °F 60% 30.06 in 10.0 mi Calm Calm - N/A   Clear
7:36 PM -2.2 °F -12.5 °F -13.0 °F 60% 30.08 in 10.0 mi NW 4.6 mph - N/A   Clear
7:57 PM -2.2 °F -15.6 °F -13.0 °F 60% 30.09 in 10.0 mi NW 6.9 mph - N/A   Clear
8:17 PM -2.2 °F -12.5 °F -13.0 °F 60% 30.09 in 10.0 mi NW 4.6 mph - N/A   Clear
8:57 PM -4.0 °F -12.4 °F -13.0 °F 65% 30.10 in 10.0 mi NW 3.5 mph - N/A   Clear
9:16 PM -5.8 °F - -13.0 °F 71% 30.11 in 10.0 mi Calm Calm - N/A   Clear
9:37 PM -5.8 °F - -14.8 °F 65% 30.11 in 10.0 mi Calm Calm - N/A   Clear
9:56 PM -7.6 °F -16.5 °F -14.8 °F 71% 30.11 in 10.0 mi NW 3.5 mph - N/A   Clear
10:17 PM -7.6 °F - -14.8 °F 71% 30.13 in 10.0 mi Calm Calm - N/A   Clear
10:36 PM -7.6 °F -18.8 °F -14.8 °F 71% 30.13 in 10.0 mi NW 4.6 mph - N/A   Mostly Cloudy
10:56 PM -7.6 °F -16.5 °F -14.8 °F 71% 30.15 in 10.0 mi WNW 3.5 mph - N/A   Overcast
11:16 PM -7.6 °F -22.1 °F -16.6 °F 65% 30.16 in 10.0 mi NW 6.9 mph - N/A   Overcast
11:36 PM -7.6 °F - -16.6 °F 65% 30.17 in 10.0 mi Calm Calm - N/A   Scattered Clouds
11:57 PM -7.6 °F -22.1 °F -16.6 °F 65% 30.18 in 10.0 mi NW 6.9 mph - N/A   Clear